Donau Ekspres II — TCUR7 — position and weather

sailwx.info

Track history (hours):
 
Tides and Currents Weather Stations Pressure Air Temp Water Temp Dewpoint Dewpoint Depression Visibility Wind Speed Wind Dir Waves Ship Positions

Donau Ekspres II

Last reported at 2017-Oct-21 14:36 UTC. Time now 2017-Oct-22 19:07 UTC.
Position N 40°59' E 028°55'.

Length 97 m; draft 4.5 m.

Type: Ship. MMSI: 271043190.

Date/timePositionNaut miles runAvg speedWind from/ knotsBaromVisibWave heightAir tempDewpointWater temp
2017-Oct-21 14:36N 40°59' E 028°55'0 0.0
2017-Oct-21 14:00N 40°59' E 028°55'0 0.0
2017-Oct-21 13:30N 40°59' E 028°55'34 3.0
2017-Oct-21 02:01N 40°25' E 029°05'  
2017-Oct-17 21:39N 40°01' E 026°12'2 7.1
2017-Oct-17 21:25N 40°01' E 026°10'3 6.7
2017-Oct-17 21:00N 39°59' E 026°07'  
2017-Oct-13 04:06N 37°50' E 025°42'1 8.8
2017-Oct-13 03:59N 37°50' E 025°41'4 8.6
2017-Oct-13 03:30N 37°47' E 025°37'4 8.5
2017-Oct-13 03:00N 37°44' E 025°33'4 8.4
2017-Oct-13 02:30N 37°41' E 025°29'4 8.2
2017-Oct-13 02:00N 37°38' E 025°26'4 8.2
2017-Oct-13 01:30N 37°35' E 025°22'4 8.4
2017-Oct-13 01:00N 37°33' E 025°18'4 8.0
2017-Oct-13 00:30N 37°30' E 025°14'4 8.7
2017-Oct-13 00:00N 37°27' E 025°10'5 9.1
2017-Oct-12 23:30N 37°25' E 025°05'4 8.7
2017-Oct-12 23:00N 37°22' E 025°01'4 8.6
2017-Oct-12 22:30N 37°20' E 024°56'4 8.2
2017-Oct-12 22:00N 37°17' E 024°52'4 7.9
2017-Oct-12 21:30N 37°15' E 024°48'  
Track history (hours):
 
Tides and Currents Weather Stations Pressure Air Temp Water Temp Dewpoint Dewpoint Depression Visibility Wind Speed Wind Dir Waves Ship Positions

Donau Ekspres II

Last reported at 2017-Oct-21 14:36 UTC. Time now 2017-Oct-22 19:07 UTC.
Position N 40°59' E 028°55'.

Length 97 m; draft 4.5 m.

Type: Ship. MMSI: 271043190.

Date/timePositionNaut miles runAvg speedWind from/ knotsBaromVisibWave heightAir tempDewpointWater temp
2017-Oct-21 14:36N 40°59' E 028°55'0 0.0
2017-Oct-21 14:00N 40°59' E 028°55'0 0.0
2017-Oct-21 13:30N 40°59' E 028°55'34 3.0
2017-Oct-21 02:01N 40°25' E 029°05'  
2017-Oct-17 21:39N 40°01' E 026°12'2 7.1
2017-Oct-17 21:25N 40°01' E 026°10'3 6.7
2017-Oct-17 21:00N 39°59' E 026°07'  
2017-Oct-13 04:06N 37°50' E 025°42'1 8.8
2017-Oct-13 03:59N 37°50' E 025°41'4 8.6
2017-Oct-13 03:30N 37°47' E 025°37'4 8.5
2017-Oct-13 03:00N 37°44' E 025°33'4 8.4
2017-Oct-13 02:30N 37°41' E 025°29'4 8.2
2017-Oct-13 02:00N 37°38' E 025°26'4 8.2
2017-Oct-13 01:30N 37°35' E 025°22'4 8.4
2017-Oct-13 01:00N 37°33' E 025°18'4 8.0
2017-Oct-13 00:30N 37°30' E 025°14'4 8.7
2017-Oct-13 00:00N 37°27' E 025°10'5 9.1
2017-Oct-12 23:30N 37°25' E 025°05'4 8.7
2017-Oct-12 23:00N 37°22' E 025°01'4 8.6
2017-Oct-12 22:30N 37°20' E 024°56'4 8.2
2017-Oct-12 22:00N 37°17' E 024°52'4 7.9
2017-Oct-12 21:30N 37°15' E 024°48'  

Dump ship's entire track history